Time;durP1;ratioP1;P1;durP2;ratioP2;P2;SDS_P1;SDS_P2;PMS_P1;PMS_P2;Temp;Humidity;BMP_temperature;BMP_pressure;BME280_temperature;BME280_humidity;BME280_pressure;Samples;Min_cycle;Max_cycle;Signal;HPM_P1;HPM_P2
2022/09/08 00:01:33;;;;;;;;;;;18.20;99.90;;;;;;5023670;28;20039;-80
2022/09/08 00:04:01;;;;;;;;;;;18.30;99.90;;;;;;5037744;28;19951;-81
2022/09/08 00:06:26;;;;;;;;;;;18.30;99.90;;;;;;5048509;28;19971;-79
2022/09/08 00:08:55;;;;;;;;;;;18.30;99.90;;;;;;5037705;28;20590;-78
2022/09/08 00:11:22;;;;;;;;;;;18.30;99.90;;;;;;5043557;28;19924;-80
2022/09/08 00:13:48;;;;;;;;;;;18.30;99.90;;;;;;5017291;28;19917;-82
2022/09/08 00:16:18;;;;;;;;;;;18.30;99.90;;;;;;5039083;28;19917;-78
2022/09/08 00:18:44;;;;;;;;;;;18.30;99.90;;;;;;5035639;28;19963;-81
2022/09/08 00:21:10;;;;;;;;;;;18.30;99.90;;;;;;5040749;28;19913;-81
2022/09/08 00:23:36;;;;;;;;;;;18.30;99.90;;;;;;5040307;28;19996;-80
2022/09/08 00:26:02;;;;;;;;;;;18.30;99.90;;;;;;5041096;28;19917;-81
2022/09/08 00:28:28;;;;;;;;;;;18.30;99.90;;;;;;5038517;28;19912;-80
2022/09/08 00:30:57;;;;;;;;;;;18.30;99.90;;;;;;5042308;28;19952;-81
2022/09/08 00:33:23;;;;;;;;;;;18.30;99.90;;;;;;5040528;28;20397;-79
2022/09/08 00:35:51;;;;;;;;;;;18.30;99.90;;;;;;5039884;28;20015;-80
2022/09/08 00:38:16;;;;;;;;;;;18.20;99.90;;;;;;5041122;28;19999;-80
2022/09/08 00:40:46;;;;;;;;;;;18.20;99.90;;;;;;5042098;28;19989;-81
2022/09/08 00:43:32;;;;;;;;;;;18.20;99.90;;;;;;5047978;28;19967;-80
2022/09/08 00:46:03;;;;;;;;;;;18.20;99.90;;;;;;5045436;28;20420;-79
2022/09/08 00:48:29;;;;;;;;;;;18.20;99.90;;;;;;5042919;28;19913;-80
2022/09/08 00:50:55;;;;;;;;;;;18.10;99.90;;;;;;5045420;28;19960;-81
2022/09/08 00:53:20;;;;;;;;;;;18.20;99.90;;;;;;5047497;28;19979;-79
2022/09/08 00:55:46;;;;;;;;;;;18.20;99.90;;;;;;5046284;28;20627;-79
2022/09/08 00:58:12;;;;;;;;;;;18.20;99.90;;;;;;5046646;28;19943;-79
2022/09/08 01:00:38;;;;;;;;;;;18.20;99.90;;;;;;5031514;28;20002;-80
2022/09/08 01:03:06;;;;;;;;;;;18.20;99.90;;;;;;5030534;28;19967;-80
2022/09/08 01:05:38;;;;;;;;;;;18.20;99.90;;;;;;5028269;28;20011;-79
2022/09/08 01:13:45;;;;;;;;;;;18.00;99.90;;;;;;5032823;28;20018;-80
2022/09/08 01:16:11;;;;;;;;;;;18.00;99.90;;;;;;5034059;28;19963;-80
2022/09/08 01:18:37;;;;;;;;;;;18.00;99.90;;;;;;5047926;28;20629;-81
2022/09/08 01:21:19;;;;;;;;;;;18.00;99.90;;;;;;5049177;28;19915;-80
2022/09/08 01:24:03;;;;;;;;;;;18.00;99.90;;;;;;5048562;28;19936;-81
2022/09/08 01:26:50;;;;;;;;;;;18.10;99.90;;;;;;5030561;28;20133;-80
2022/09/08 01:29:16;;;;;;;;;;;18.10;99.90;;;;;;5043273;28;19913;-78
2022/09/08 01:31:42;;;;;;;;;;;18.00;99.90;;;;;;5043252;28;19991;-81
2022/09/08 01:34:08;;;;;;;;;;;18.00;99.90;;;;;;5039414;28;20373;-79
2022/09/08 01:36:34;;;;;;;;;;;18.00;99.90;;;;;;5047922;28;19917;-80
2022/09/08 01:39:00;;;;;;;;;;;18.00;99.90;;;;;;5048405;28;19962;-81
2022/09/08 01:41:26;;;;;;;;;;;18.00;99.90;;;;;;5042236;28;20288;-80
2022/09/08 01:43:51;;;;;;;;;;;18.00;99.90;;;;;;5036455;28;19932;-80
2022/09/08 01:46:17;;;;;;;;;;;18.00;99.90;;;;;;5044001;28;19913;-79
2022/09/08 01:48:42;;;;;;;;;;;18.00;99.90;;;;;;5023226;28;20697;-82
2022/09/08 01:51:08;;;;;;;;;;;18.00;99.90;;;;;;5040431;28;20308;-81
2022/09/08 01:53:34;;;;;;;;;;;18.00;99.90;;;;;;5039138;28;19913;-80
2022/09/08 01:56:00;;;;;;;;;;;18.00;99.90;;;;;;5038380;28;19917;-79
2022/09/08 01:58:25;;;;;;;;;;;18.00;99.90;;;;;;5037835;28;19917;-79
2022/09/08 02:00:51;;;;;;;;;;;18.00;99.90;;;;;;5031998;28;19909;-80
2022/09/08 02:03:17;;;;;;;;;;;18.00;99.90;;;;;;5028149;28;19921;-80
2022/09/08 02:05:43;;;;;;;;;;;17.90;99.90;;;;;;5030959;28;19982;-80
2022/09/08 02:08:09;;;;;;;;;;;17.90;99.90;;;;;;5033107;28;19917;-81
2022/09/08 02:10:34;;;;;;;;;;;17.80;99.90;;;;;;5046503;28;19923;-80
2022/09/08 02:13:00;;;;;;;;;;;17.90;99.90;;;;;;5025877;28;20447;-81
2022/09/08 02:15:26;;;;;;;;;;;17.80;99.90;;;;;;5029741;28;19917;-80
2022/09/08 02:17:52;;;;;;;;;;;17.80;99.90;;;;;;5025726;28;19994;-80
2022/09/08 02:20:18;;;;;;;;;;;17.70;99.90;;;;;;5046132;28;19944;-80
2022/09/08 02:22:45;;;;;;;;;;;17.70;99.90;;;;;;5045064;28;19913;-81
2022/09/08 02:25:11;;;;;;;;;;;17.70;99.90;;;;;;5025831;28;19913;-80
2022/09/08 02:27:36;;;;;;;;;;;17.60;99.90;;;;;;5046898;28;20673;-80
2022/09/08 02:30:02;;;;;;;;;;;17.50;99.90;;;;;;5017513;28;20583;-81
2022/09/08 02:32:27;;;;;;;;;;;17.50;99.90;;;;;;5027318;28;19931;-80
2022/09/08 02:34:53;;;;;;;;;;;17.40;99.90;;;;;;5009682;28;19932;-80
2022/09/08 02:37:19;;;;;;;;;;;17.40;99.90;;;;;;5039433;28;19913;-81
2022/09/08 02:39:45;;;;;;;;;;;17.30;99.90;;;;;;5043400;28;20028;-80
2022/09/08 02:42:11;;;;;;;;;;;17.30;99.90;;;;;;5044492;28;19917;-81
2022/09/08 02:44:37;;;;;;;;;;;17.20;99.90;;;;;;5045178;28;19916;-80
2022/09/08 02:47:03;;;;;;;;;;;17.10;99.90;;;;;;5028238;28;19919;-81
2022/09/08 02:49:30;;;;;;;;;;;17.10;99.90;;;;;;5037949;28;20301;-80
2022/09/08 02:51:55;;;;;;;;;;;17.00;99.90;;;;;;5038267;28;19917;-80
2022/09/08 02:54:21;;;;;;;;;;;17.00;99.90;;;;;;5045282;28;20899;-81
2022/09/08 02:56:46;;;;;;;;;;;16.90;99.90;;;;;;5043474;28;19948;-80
2022/09/08 02:59:12;;;;;;;;;;;16.90;99.90;;;;;;5019548;28;19959;-81
2022/09/08 03:01:38;;;;;;;;;;;16.90;99.90;;;;;;5044511;28;19919;-80
2022/09/08 03:04:05;;;;;;;;;;;16.80;99.90;;;;;;5035894;28;19935;-80
2022/09/08 03:06:31;;;;;;;;;;;16.80;99.90;;;;;;5032002;28;19913;-81
2022/09/08 03:08:57;;;;;;;;;;;16.80;99.90;;;;;;5025097;28;19948;-81
2022/09/08 03:11:23;;;;;;;;;;;16.70;99.90;;;;;;5038805;28;19913;-81
2022/09/08 03:13:49;;;;;;;;;;;16.70;99.90;;;;;;5039292;28;20037;-80
2022/09/08 03:16:14;;;;;;;;;;;16.70;99.90;;;;;;5017524;28;20039;-81
2022/09/08 03:18:40;;;;;;;;;;;16.70;99.90;;;;;;5029588;28;19917;-80
2022/09/08 03:21:10;;;;;;;;;;;16.70;99.90;;;;;;5048212;28;19919;-81
2022/09/08 03:23:36;;;;;;;;;;;16.70;99.90;;;;;;5027941;28;20007;-82
2022/09/08 03:26:03;;;;;;;;;;;16.70;99.90;;;;;;5041048;28;19956;-81
2022/09/08 03:28:28;;;;;;;;;;;16.70;99.90;;;;;;5049384;28;19913;-80
2022/09/08 03:30:54;;;;;;;;;;;16.70;99.90;;;;;;5048299;28;19916;-81
2022/09/08 03:33:19;;;;;;;;;;;16.80;99.90;;;;;;5050049;28;19917;-81
2022/09/08 03:35:47;;;;;;;;;;;16.80;99.90;;;;;;5050403;28;19970;-81
2022/09/08 03:38:13;;;;;;;;;;;16.70;99.90;;;;;;5013448;28;20537;-82
2022/09/08 03:40:39;;;;;;;;;;;16.70;99.90;;;;;;5023144;28;19913;-80
2022/09/08 03:43:05;;;;;;;;;;;16.70;99.90;;;;;;5048760;28;19928;-82
2022/09/08 03:45:31;;;;;;;;;;;16.60;99.90;;;;;;5026562;28;19925;-80
2022/09/08 03:47:56;;;;;;;;;;;16.60;99.90;;;;;;5035245;28;19917;-81
2022/09/08 03:50:22;;;;;;;;;;;16.60;99.90;;;;;;5038419;28;19965;-82
2022/09/08 03:52:48;;;;;;;;;;;16.60;99.90;;;;;;5051482;28;19920;-81
2022/09/08 03:55:13;;;;;;;;;;;16.60;99.90;;;;;;5050719;28;19956;-81
2022/09/08 03:57:39;;;;;;;;;;;16.70;99.90;;;;;;5033849;28;19970;-82
2022/09/08 04:00:07;;;;;;;;;;;16.60;99.90;;;;;;5041323;28;19928;-81
2022/09/08 04:02:38;;;;;;;;;;;16.60;99.90;;;;;;5050957;28;19913;-82
2022/09/08 04:05:04;;;;;;;;;;;16.60;99.90;;;;;;5047943;28;19928;-82
2022/09/08 04:07:30;;;;;;;;;;;16.60;99.90;;;;;;5051855;28;20012;-82
2022/09/08 04:09:56;;;;;;;;;;;16.50;99.90;;;;;;5042357;28;19939;-80
2022/09/08 04:12:23;;;;;;;;;;;16.50;99.90;;;;;;5048963;28;20393;-79
2022/09/08 04:14:49;;;;;;;;;;;16.50;99.90;;;;;;5050548;28;19956;-81
2022/09/08 04:17:15;;;;;;;;;;;16.50;99.90;;;;;;5030118;28;20014;-82
2022/09/08 04:19:41;;;;;;;;;;;16.50;99.90;;;;;;5025605;28;20436;-82
2022/09/08 04:22:06;;;;;;;;;;;16.50;99.90;;;;;;5048425;28;19968;-81
2022/09/08 04:24:32;;;;;;;;;;;16.50;99.90;;;;;;5013039;28;19925;-79
2022/09/08 04:26:58;;;;;;;;;;;16.50;99.90;;;;;;5044994;28;19999;-79
2022/09/08 04:29:23;;;;;;;;;;;16.50;99.90;;;;;;5050100;28;20514;-81
2022/09/08 04:31:49;;;;;;;;;;;16.40;99.90;;;;;;5033082;28;19916;-82
2022/09/08 04:34:15;;;;;;;;;;;16.50;99.90;;;;;;5029540;28;20066;-81
2022/09/08 04:36:42;;;;;;;;;;;16.50;99.90;;;;;;5048219;28;19944;-80
2022/09/08 04:39:08;;;;;;;;;;;16.50;99.90;;;;;;5046692;28;19917;-81
2022/09/08 04:41:33;;;;;;;;;;;16.50;99.90;;;;;;5030803;28;19944;-82
2022/09/08 04:44:01;;;;;;;;;;;16.60;99.90;;;;;;5015194;28;19939;-79
2022/09/08 04:46:27;;;;;;;;;;;16.50;99.90;;;;;;5038331;28;19912;-80
2022/09/08 04:48:53;;;;;;;;;;;16.50;99.90;;;;;;5048846;28;20450;-79
2022/09/08 04:51:19;;;;;;;;;;;16.50;99.90;;;;;;5022074;28;20417;-82
2022/09/08 04:53:45;;;;;;;;;;;16.60;99.90;;;;;;5031501;28;20571;-81
2022/09/08 04:56:11;;;;;;;;;;;16.60;99.90;;;;;;5044198;28;19928;-80
2022/09/08 04:58:38;;;;;;;;;;;16.60;99.90;;;;;;5027937;28;20420;-80
2022/09/08 05:01:04;;;;;;;;;;;16.70;99.90;;;;;;5040946;28;19923;-80
2022/09/08 05:03:29;;;;;;;;;;;16.60;99.90;;;;;;5048035;28;19916;-81
2022/09/08 05:05:55;;;;;;;;;;;16.60;99.90;;;;;;5044781;28;19916;-81
2022/09/08 05:08:21;;;;;;;;;;;16.70;99.90;;;;;;5031812;28;19920;-81
2022/09/08 05:10:51;;;;;;;;;;;16.70;99.90;;;;;;5030228;28;20595;-82
2022/09/08 05:13:17;;;;;;;;;;;16.70;99.90;;;;;;5048421;28;19923;-80
2022/09/08 05:15:44;;;;;;;;;;;16.70;99.90;;;;;;5047228;28;19920;-82
2022/09/08 05:18:10;;;;;;;;;;;16.70;99.90;;;;;;5026191;28;19924;-81
2022/09/08 05:20:36;;;;;;;;;;;16.70;99.90;;;;;;5033419;28;20156;-79
2022/09/08 05:23:01;;;;;;;;;;;16.60;99.90;;;;;;5047103;28;19970;-82
2022/09/08 05:25:27;;;;;;;;;;;16.70;99.90;;;;;;5016996;28;19921;-81
2022/09/08 05:27:52;;;;;;;;;;;16.70;99.90;;;;;;5030994;28;19909;-81
2022/09/08 05:30:18;;;;;;;;;;;16.70;99.90;;;;;;5036182;28;19932;-80
2022/09/08 05:32:44;;;;;;;;;;;16.60;99.90;;;;;;5047587;28;19921;-81
2022/09/08 05:35:09;;;;;;;;;;;16.60;99.90;;;;;;5044820;28;19924;-81
2022/09/08 05:37:35;;;;;;;;;;;16.60;99.90;;;;;;5046845;28;19917;-80
2022/09/08 05:40:01;;;;;;;;;;;16.60;99.90;;;;;;5045200;28;19916;-80
2022/09/08 05:42:26;;;;;;;;;;;16.60;99.90;;;;;;5045696;28;20295;-80
2022/09/08 05:44:52;;;;;;;;;;;16.60;99.90;;;;;;5042614;28;19917;-81
2022/09/08 05:47:18;;;;;;;;;;;16.70;99.90;;;;;;5030030;28;19963;-81
2022/09/08 05:49:45;;;;;;;;;;;16.70;99.90;;;;;;5025639;28;19921;-80
2022/09/08 05:52:11;;;;;;;;;;;16.70;99.90;;;;;;5043451;28;19931;-80
2022/09/08 05:54:37;;;;;;;;;;;16.80;99.90;;;;;;5029120;28;20416;-81
2022/09/08 05:57:03;;;;;;;;;;;16.90;99.90;;;;;;5043630;28;20401;-79
2022/09/08 05:59:29;;;;;;;;;;;16.90;99.90;;;;;;5021711;28;19974;-81
2022/09/08 06:01:54;;;;;;;;;;;16.90;99.90;;;;;;5024633;28;20026;-81
2022/09/08 06:04:20;;;;;;;;;;;17.00;99.90;;;;;;5046063;28;20004;-82
2022/09/08 06:06:46;;;;;;;;;;;17.00;99.90;;;;;;5033024;28;19924;-81
2022/09/08 06:09:12;;;;;;;;;;;17.00;99.90;;;;;;5046405;28;19912;-80
2022/09/08 06:11:38;;;;;;;;;;;17.10;99.90;;;;;;5045096;28;19913;-82
2022/09/08 06:14:05;;;;;;;;;;;17.10;99.90;;;;;;5045709;28;20058;-79
2022/09/08 06:16:31;;;;;;;;;;;17.10;99.90;;;;;;5045328;28;19916;-81
2022/09/08 06:18:58;;;;;;;;;;;17.10;99.90;;;;;;5045727;28;20312;-81
2022/09/08 06:21:26;;;;;;;;;;;17.20;99.90;;;;;;5041638;28;19931;-80
2022/09/08 06:23:53;;;;;;;;;;;17.20;99.90;;;;;;5028966;28;19936;-80
2022/09/08 06:26:27;;;;;;;;;;;17.20;99.90;;;;;;5045773;28;19913;-81
2022/09/08 06:28:58;;;;;;;;;;;17.10;99.90;;;;;;5024703;28;19913;-80
2022/09/08 06:31:28;;;;;;;;;;;17.20;99.90;;;;;;5036736;28;19920;-82
2022/09/08 06:33:54;;;;;;;;;;;17.10;99.90;;;;;;5028281;28;20019;-82
2022/09/08 06:36:22;;;;;;;;;;;17.10;99.90;;;;;;5044471;28;20364;-79
2022/09/08 06:38:51;;;;;;;;;;;17.10;99.90;;;;;;5042751;28;19913;-82
2022/09/08 06:41:22;;;;;;;;;;;17.10;99.90;;;;;;5038027;28;19916;-80
2022/09/08 06:43:51;;;;;;;;;;;17.10;99.90;;;;;;5038154;28;20315;-81
2022/09/08 06:46:27;;;;;;;;;;;17.20;99.90;;;;;;5053724;28;20278;-80
2022/09/08 06:48:53;;;;;;;;;;;17.20;99.90;;;;;;5031777;28;19917;-80
2022/09/08 06:51:18;;;;;;;;;;;17.30;99.90;;;;;;5039943;28;19913;-81
2022/09/08 06:54:03;;;;;;;;;;;17.30;99.90;;;;;;5039702;28;20518;-80
2022/09/08 06:56:39;;;;;;;;;;;17.30;99.90;;;;;;5049578;28;20538;-81
2022/09/08 06:59:28;;;;;;;;;;;17.30;99.90;;;;;;5059118;28;20515;-79
2022/09/08 07:02:00;;;;;;;;;;;17.30;99.90;;;;;;5059120;28;19947;-81
2022/09/08 07:05:05;;;;;;;;;;;17.40;99.90;;;;;;5049157;28;20680;-81
2022/09/08 07:07:42;;;;;;;;;;;17.40;99.90;;;;;;5084991;28;19916;-78
2022/09/08 07:10:24;;;;;;;;;;;17.40;99.90;;;;;;5072261;28;19919;-79
2022/09/08 07:12:49;;;;;;;;;;;17.40;99.90;;;;;;5035384;28;19912;-78
2022/09/08 07:15:23;;;;;;;;;;;17.50;99.90;;;;;;5051803;28;19923;-81
2022/09/08 07:17:52;;;;;;;;;;;17.50;99.90;;;;;;5051227;28;20107;-81
2022/09/08 07:20:18;;;;;;;;;;;17.60;99.90;;;;;;5049911;28;19912;-78
2022/09/08 07:22:54;;;;;;;;;;;17.60;99.90;;;;;;5053642;28;19913;-79
2022/09/08 07:25:25;;;;;;;;;;;17.60;99.90;;;;;;5055627;28;19913;-80
2022/09/08 07:27:56;;;;;;;;;;;17.60;99.90;;;;;;5049116;28;20020;-81
2022/09/08 07:30:22;;;;;;;;;;;17.60;99.90;;;;;;5048338;28;19920;-79
2022/09/08 07:32:51;;;;;;;;;;;17.60;99.90;;;;;;5036399;28;19909;-79
2022/09/08 07:35:22;;;;;;;;;;;17.60;99.90;;;;;;5051931;28;19921;-81
2022/09/08 07:37:51;;;;;;;;;;;17.60;99.90;;;;;;5046355;28;19936;-80
2022/09/08 07:40:17;;;;;;;;;;;17.60;99.90;;;;;;5052868;28;19924;-81
2022/09/08 07:42:47;;;;;;;;;;;17.50;99.90;;;;;;5047233;28;20380;-80
2022/09/08 07:45:12;;;;;;;;;;;17.50;99.90;;;;;;5053822;28;19913;-80
2022/09/08 07:47:57;;;;;;;;;;;17.50;99.90;;;;;;5039120;28;20005;-81
2022/09/08 07:53:35;;;;;;;;;;;17.40;99.90;;;;;;5027113;28;19967;-81
2022/09/08 07:56:21;;;;;;;;;;;17.40;99.90;;;;;;5042622;28;20012;-79
2022/09/08 07:58:51;;;;;;;;;;;17.40;99.90;;;;;;5049559;28;19913;-81
2022/09/08 08:01:32;;;;;;;;;;;17.40;99.90;;;;;;5059619;28;19920;-80
2022/09/08 08:04:13;;;;;;;;;;;17.40;99.90;;;;;;5029079;28;19920;-81
2022/09/08 08:06:52;;;;;;;;;;;17.30;99.90;;;;;;5058805;28;19913;-82
2022/09/08 08:09:17;;;;;;;;;;;17.30;99.90;;;;;;5043405;28;20642;-81
2022/09/08 08:11:43;;;;;;;;;;;17.20;99.90;;;;;;5041674;28;19913;-81
2022/09/08 08:14:11;;;;;;;;;;;17.20;99.90;;;;;;5046243;28;19909;-80
2022/09/08 08:16:43;;;;;;;;;;;17.20;99.90;;;;;;5045230;28;19920;-80
2022/09/08 08:19:36;;;;;;;;;;;17.20;99.90;;;;;;5031564;28;19920;-82
2022/09/08 08:22:11;;;;;;;;;;;17.20;99.90;;;;;;5046660;28;20606;-80
2022/09/08 08:24:55;;;;;;;;;;;17.10;99.90;;;;;;5038363;28;19913;-81
2022/09/08 08:27:53;;;;;;;;;;;17.20;99.90;;;;;;5046519;28;20858;-82
2022/09/08 08:30:20;;;;;;;;;;;17.10;99.90;;;;;;5042662;28;19959;-82
2022/09/08 08:32:48;;;;;;;;;;;17.10;99.90;;;;;;5032166;28;19943;-80
2022/09/08 08:35:32;;;;;;;;;;;17.10;99.90;;;;;;5046594;28;20415;-81
2022/09/08 08:37:59;;;;;;;;;;;17.10;99.90;;;;;;5050012;28;20332;-81
2022/09/08 08:40:48;;;;;;;;;;;17.10;99.90;;;;;;5059117;28;19917;-80
2022/09/08 08:43:33;;;;;;;;;;;17.00;99.90;;;;;;5050918;28;19913;-81
2022/09/08 08:46:05;;;;;;;;;;;17.10;99.90;;;;;;5047889;28;19913;-79
2022/09/08 08:48:37;;;;;;;;;;;17.10;99.90;;;;;;5039255;28;20539;-80
2022/09/08 08:51:08;;;;;;;;;;;17.10;99.90;;;;;;5037272;28;19917;-81
2022/09/08 08:53:42;;;;;;;;;;;17.00;99.90;;;;;;5030739;28;19976;-81
2022/09/08 08:56:07;;;;;;;;;;;17.00;99.90;;;;;;5044805;28;19917;-80
2022/09/08 08:58:36;;;;;;;;;;;17.00;99.90;;;;;;5038374;28;19963;-80
2022/09/08 09:01:20;;;;;;;;;;;17.00;99.90;;;;;;5027908;28;20621;-80
2022/09/08 09:03:48;;;;;;;;;;;17.10;99.90;;;;;;5048910;28;19921;-80
2022/09/08 09:06:32;;;;;;;;;;;17.10;99.90;;;;;;5043363;28;19948;-81
2022/09/08 09:09:28;;;;;;;;;;;17.10;99.90;;;;;;5039254;28;19917;-80
2022/09/08 09:11:59;;;;;;;;;;;17.10;99.90;;;;;;5048452;28;19940;-82
2022/09/08 09:14:40;;;;;;;;;;;17.10;99.90;;;;;;5052785;28;19913;-81
2022/09/08 09:17:14;;;;;;;;;;;17.10;99.90;;;;;;5045733;28;20019;-81
2022/09/08 09:19:58;;;;;;;;;;;17.10;99.90;;;;;;5037816;28;20082;-79
2022/09/08 09:22:42;;;;;;;;;;;17.00;99.90;;;;;;5049757;28;19941;-80
2022/09/08 09:25:14;;;;;;;;;;;16.90;99.90;;;;;;5051141;28;19913;-81
2022/09/08 09:27:40;;;;;;;;;;;16.90;99.90;;;;;;5048226;28;19913;-80
2022/09/08 09:30:15;;;;;;;;;;;16.90;99.90;;;;;;5045524;28;19963;-80
2022/09/08 09:32:40;;;;;;;;;;;16.80;99.90;;;;;;5051517;28;19919;-81
2022/09/08 09:35:32;;;;;;;;;;;16.80;99.90;;;;;;5052584;28;19917;-80
2022/09/08 09:38:11;;;;;;;;;;;16.90;99.90;;;;;;5047267;28;19917;-82
2022/09/08 09:40:50;;;;;;;;;;;16.80;99.90;;;;;;5041495;28;19936;-80
2022/09/08 09:43:25;;;;;;;;;;;16.80;99.90;;;;;;5027163;28;19927;-81
2022/09/08 09:46:10;;;;;;;;;;;16.80;99.90;;;;;;5045047;28;19913;-81
2022/09/08 09:48:47;;;;;;;;;;;16.80;99.90;;;;;;5040932;28;20307;-79
2022/09/08 09:51:39;;;;;;;;;;;16.80;99.90;;;;;;5040675;28;19913;-80
2022/09/08 09:54:31;;;;;;;;;;;16.80;99.90;;;;;;5031889;28;19980;-81
2022/09/08 09:57:16;;;;;;;;;;;16.70;99.90;;;;;;5047385;28;19956;-79
2022/09/08 09:59:41;;;;;;;;;;;16.70;99.90;;;;;;5045081;28;19945;-81
2022/09/08 10:02:26;;;;;;;;;;;16.80;99.90;;;;;;5058235;28;19928;-82
2022/09/08 10:05:18;;;;;;;;;;;16.80;99.90;;;;;;5026440;28;19935;-82
2022/09/08 10:07:46;;;;;;;;;;;16.70;99.90;;;;;;5056321;28;19913;-80
2022/09/08 10:10:28;;;;;;;;;;;16.80;99.90;;;;;;5044640;28;19971;-78
2022/09/08 10:12:57;;;;;;;;;;;16.80;99.90;;;;;;5041332;28;19920;-82
2022/09/08 10:15:32;;;;;;;;;;;16.90;99.90;;;;;;5048835;28;19948;-81
2022/09/08 10:18:16;;;;;;;;;;;16.90;99.90;;;;;;5056464;28;19920;-80
2022/09/08 10:20:41;;;;;;;;;;;16.90;99.90;;;;;;5051634;28;20377;-81
2022/09/08 10:23:28;;;;;;;;;;;17.00;99.90;;;;;;5054699;28;20016;-81
2022/09/08 10:26:12;;;;;;;;;;;17.00;99.90;;;;;;5034327;28;19913;-81
2022/09/08 10:28:37;;;;;;;;;;;16.90;99.90;;;;;;5045306;28;20283;-81
2022/09/08 10:31:22;;;;;;;;;;;16.90;99.90;;;;;;5049036;28;19921;-80
2022/09/08 10:34:06;;;;;;;;;;;16.90;99.90;;;;;;5049267;28;19913;-82
2022/09/08 10:36:32;;;;;;;;;;;16.90;99.90;;;;;;5056345;28;19920;-81
2022/09/08 10:39:01;;;;;;;;;;;17.00;99.90;;;;;;5050138;28;19946;-81
2022/09/08 10:41:46;;;;;;;;;;;17.00;99.90;;;;;;5054934;28;19920;-80
2022/09/08 10:44:30;;;;;;;;;;;17.10;99.90;;;;;;5039787;28;19921;-81
2022/09/08 10:47:02;;;;;;;;;;;17.20;99.90;;;;;;5044298;28;19920;-80
2022/09/08 10:49:33;;;;;;;;;;;17.40;99.90;;;;;;5063833;28;19951;-80
2022/09/08 10:52:18;;;;;;;;;;;17.60;99.90;;;;;;5060330;28;19935;-81
2022/09/08 10:54:46;;;;;;;;;;;17.70;99.90;;;;;;5056959;28;19916;-79
2022/09/08 10:57:32;;;;;;;;;;;17.90;99.90;;;;;;5053030;28;19919;-81
2022/09/08 10:59:58;;;;;;;;;;;18.00;99.90;;;;;;5043531;28;19912;-80
2022/09/08 11:02:26;;;;;;;;;;;18.10;99.90;;;;;;5051018;28;19919;-80
2022/09/08 11:04:58;;;;;;;;;;;18.30;99.90;;;;;;5058501;28;19920;-80
2022/09/08 11:07:29;;;;;;;;;;;18.30;99.90;;;;;;5042003;28;19951;-80
2022/09/08 11:10:01;;;;;;;;;;;18.40;99.90;;;;;;5054913;28;19913;-82
2022/09/08 11:12:26;;;;;;;;;;;18.20;99.90;;;;;;5058311;28;19956;-79
2022/09/08 11:15:04;;;;;;;;;;;18.20;99.90;;;;;;5058858;28;19916;-78
2022/09/08 11:17:37;;;;;;;;;;;18.20;99.90;;;;;;5052461;28;19994;-79
2022/09/08 11:20:12;;;;;;;;;;;18.20;99.90;;;;;;5051849;28;20013;-80
2022/09/08 11:22:47;;;;;;;;;;;18.20;99.90;;;;;;5041724;28;19917;-82
2022/09/08 11:25:16;;;;;;;;;;;18.10;99.90;;;;;;5059538;28;19916;-79
2022/09/08 11:28:00;;;;;;;;;;;18.10;99.90;;;;;;5056994;28;19916;-80
2022/09/08 11:30:45;;;;;;;;;;;18.00;99.90;;;;;;5047781;28;20008;-78
2022/09/08 11:33:23;;;;;;;;;;;17.90;99.90;;;;;;5038093;28;20008;-80
2022/09/08 11:36:09;;;;;;;;;;;17.90;99.90;;;;;;5052538;28;20453;-80
2022/09/08 11:38:46;;;;;;;;;;;17.80;99.90;;;;;;5057460;28;19951;-79
2022/09/08 11:41:31;;;;;;;;;;;17.70;99.90;;;;;;5055675;28;20008;-81
2022/09/08 11:44:05;;;;;;;;;;;17.80;99.90;;;;;;5047437;28;19920;-82
2022/09/08 11:46:38;;;;;;;;;;;17.90;99.90;;;;;;5044829;28;19913;-79
2022/09/08 11:49:19;;;;;;;;;;;17.90;99.90;;;;;;5054069;28;19913;-78
2022/09/08 11:51:48;;;;;;;;;;;17.90;99.90;;;;;;5051806;28;19916;-79
2022/09/08 11:54:25;;;;;;;;;;;18.00;99.90;;;;;;5052125;28;20076;-79
2022/09/08 11:57:09;;;;;;;;;;;18.00;99.90;;;;;;5045081;28;20564;-79
2022/09/08 11:59:41;;;;;;;;;;;18.10;99.90;;;;;;5021063;28;19916;-80
2022/09/08 12:02:24;;;;;;;;;;;18.20;99.90;;;;;;5057347;28;19913;-79
2022/09/08 12:05:08;;;;;;;;;;;18.30;99.90;;;;;;5044652;28;19955;-79
2022/09/08 12:07:34;;;;;;;;;;;18.40;99.90;;;;;;5057742;28;20003;-80
2022/09/08 12:10:06;;;;;;;;;;;18.50;99.90;;;;;;5060464;28;19924;-80
2022/09/08 12:12:35;;;;;;;;;;;18.50;99.90;;;;;;5052373;28;19917;-81
2022/09/08 12:15:19;;;;;;;;;;;18.60;99.90;;;;;;5051633;28;19933;-79
2022/09/08 12:17:47;;;;;;;;;;;18.50;99.90;;;;;;5046436;28;20381;-79
2022/09/08 12:20:26;;;;;;;;;;;18.50;99.90;;;;;;5031867;28;19916;-82
2022/09/08 12:22:52;;;;;;;;;;;18.40;99.90;;;;;;5048250;28;19942;-80
2022/09/08 12:25:30;;;;;;;;;;;18.30;99.90;;;;;;5057587;28;20042;-79
2022/09/08 12:28:15;;;;;;;;;;;18.40;99.90;;;;;;5038771;28;19924;-80
2022/09/08 12:30:47;;;;;;;;;;;18.50;99.90;;;;;;5055937;28;19913;-79
2022/09/08 12:33:20;;;;;;;;;;;18.60;99.90;;;;;;5033987;28;19920;-79
2022/09/08 12:35:51;;;;;;;;;;;18.70;99.90;;;;;;5049529;28;19928;-79
2022/09/08 12:38:26;;;;;;;;;;;18.70;99.90;;;;;;5033517;28;19913;-80
2022/09/08 12:41:10;;;;;;;;;;;18.80;99.90;;;;;;5048590;28;19921;-81
2022/09/08 12:43:36;;;;;;;;;;;18.80;99.90;;;;;;5043340;28;19967;-79
2022/09/08 12:46:01;;;;;;;;;;;19.00;99.90;;;;;;5049023;28;19916;-79
2022/09/08 12:48:33;;;;;;;;;;;19.10;99.90;;;;;;5046132;28;19920;-80
2022/09/08 12:51:01;;;;;;;;;;;19.20;99.90;;;;;;5037554;28;19959;-79
2022/09/08 12:53:29;;;;;;;;;;;19.20;99.90;;;;;;5047046;28;19917;-80
2022/09/08 12:55:57;;;;;;;;;;;19.10;99.90;;;;;;5041404;28;20054;-78
2022/09/08 12:58:29;;;;;;;;;;;19.10;99.90;;;;;;5050194;28;19939;-79
2022/09/08 13:01:02;;;;;;;;;;;19.10;99.90;;;;;;5023477;28;19917;-79
2022/09/08 13:03:34;;;;;;;;;;;19.10;99.90;;;;;;5039082;28;19920;-81
2022/09/08 13:06:18;;;;;;;;;;;19.10;99.90;;;;;;5040010;28;19913;-80
2022/09/08 13:09:07;;;;;;;;;;;19.20;99.90;;;;;;5043354;28;19981;-79
2022/09/08 13:11:46;;;;;;;;;;;19.40;99.90;;;;;;5022635;28;19974;-79
2022/09/08 13:14:12;;;;;;;;;;;19.50;99.90;;;;;;5043241;28;19920;-78
2022/09/08 13:16:38;;;;;;;;;;;19.60;99.90;;;;;;5042267;28;19921;-80
2022/09/08 13:19:22;;;;;;;;;;;19.70;99.90;;;;;;5038439;28;19917;-79
2022/09/08 13:22:02;;;;;;;;;;;19.70;99.90;;;;;;5059210;28;20377;-79
2022/09/08 13:24:30;;;;;;;;;;;19.60;99.90;;;;;;5041942;28;19967;-80
2022/09/08 13:27:09;;;;;;;;;;;19.60;99.90;;;;;;5045594;28;19936;-80
2022/09/08 13:29:59;;;;;;;;;;;19.60;99.90;;;;;;5043590;28;19956;-79
2022/09/08 13:32:31;;;;;;;;;;;19.50;99.90;;;;;;5047917;28;19930;-80
2022/09/08 13:35:06;;;;;;;;;;;19.40;99.90;;;;;;5040291;28;19944;-80
2022/09/08 13:37:31;;;;;;;;;;;19.40;99.90;;;;;;5053751;28;19912;-80
2022/09/08 13:40:17;;;;;;;;;;;19.20;99.90;;;;;;5030736;28;19944;-79
2022/09/08 13:43:04;;;;;;;;;;;19.10;99.90;;;;;;5040858;28;19967;-79
2022/09/08 13:45:40;;;;;;;;;;;19.10;99.90;;;;;;5048359;28;19913;-80
2022/09/08 13:48:16;;;;;;;;;;;19.10;99.90;;;;;;5049743;28;19916;-80
2022/09/08 13:51:00;;;;;;;;;;;19.20;99.90;;;;;;5056483;28;19935;-80
2022/09/08 13:53:32;;;;;;;;;;;19.20;99.90;;;;;;5051814;28;20015;-80
2022/09/08 13:55:57;;;;;;;;;;;19.10;99.90;;;;;;5048498;28;19927;-79
2022/09/08 13:58:37;;;;;;;;;;;19.10;99.90;;;;;;5045666;28;19913;-80
2022/09/08 14:01:04;;;;;;;;;;;19.00;99.90;;;;;;5083456;28;19920;-81
2022/09/08 14:03:32;;;;;;;;;;;18.90;99.90;;;;;;5048188;28;19962;-79
2022/09/08 14:05:58;;;;;;;;;;;18.80;99.90;;;;;;5047602;28;19913;-79
2022/09/08 14:08:25;;;;;;;;;;;18.80;99.90;;;;;;5050779;28;19920;-79
2022/09/08 14:11:00;;;;;;;;;;;18.80;99.90;;;;;;5053461;28;19971;-79
2022/09/08 14:13:32;;;;;;;;;;;18.80;99.90;;;;;;5060940;28;19923;-79
2022/09/08 14:16:01;;;;;;;;;;;18.80;99.90;;;;;;5039451;28;19917;-80
2022/09/08 14:18:32;;;;;;;;;;;18.70;99.90;;;;;;5063047;28;19951;-79
2022/09/08 14:20:58;;;;;;;;;;;18.70;99.90;;;;;;5053136;28;20066;-79
2022/09/08 14:23:26;;;;;;;;;;;18.60;99.90;;;;;;5062608;28;19936;-79
2022/09/08 14:26:11;;;;;;;;;;;18.60;99.90;;;;;;5047524;28;20852;-79
2022/09/08 14:28:44;;;;;;;;;;;18.70;99.90;;;;;;5050394;28;20371;-80
2022/09/08 14:31:28;;;;;;;;;;;18.80;99.90;;;;;;5052906;28;19912;-79
2022/09/08 14:34:06;;;;;;;;;;;18.80;99.90;;;;;;5062584;28;20332;-79
2022/09/08 14:36:38;;;;;;;;;;;18.90;99.90;;;;;;5047924;28;19960;-79
2022/09/08 14:39:22;;;;;;;;;;;18.90;99.90;;;;;;5050271;28;19944;-80
2022/09/08 14:41:57;;;;;;;;;;;19.00;99.90;;;;;;5048063;28;19928;-79
2022/09/08 14:44:31;;;;;;;;;;;19.10;99.90;;;;;;5011352;28;19917;-79
2022/09/08 14:47:03;;;;;;;;;;;19.10;99.90;;;;;;5046494;28;19991;-79
2022/09/08 14:49:40;;;;;;;;;;;19.00;99.90;;;;;;5048404;28;19912;-79